Terminal Aerodrome Forecast
Issued by NWS

Home | Current Version | Previous Version | Text Only | Print | Product List | Glossary On
Versions: 1 2 3 4 5 6 7 8 9 10 11 12 13 14 15 16 17 18 19 20 21 22 23 24 25 26 27 28 29 30 31 32 33 34 35 36 37 38 39
000
FTUS43 KGRB 231349 AAA
TAFATW
TAF AMD
KATW 231349Z 2314/2412 VRB03KT P6SM SCT030 BKN090
     FM231700 26003KT P6SM OVC110
     FM240100 31007KT P6SM -RA OVC050
     FM240400 31009KT 4SM -RA OVC025
     FM240500 31013G20KT 3SM RA OVC011=

USA.gov is the U.S. government's official web portal to all federal, state and local government web resources and services.